createdAt,value
2023-01-19T00:01:37.320Z,84.99
2023-01-19T00:04:05.351Z,85.23
2023-01-19T00:06:32.970Z,85.18
2023-01-19T00:09:00.602Z,84.65
2023-01-19T00:11:28.220Z,85.24
2023-01-19T00:13:55.969Z,85.19
2023-01-19T00:16:23.785Z,85.24
2023-01-19T00:18:52.890Z,85.89
2023-01-19T00:21:21.758Z,85.69
2023-01-19T00:23:51.298Z,85.89
2023-01-19T00:26:21.171Z,86.11
2023-01-19T00:28:50.376Z,86.25
2023-01-19T00:31:20.816Z,86.09
2023-01-19T00:33:50.188Z,86.17
2023-01-19T00:36:17.887Z,85.64
2023-01-19T00:38:45.431Z,86.10
2023-01-19T00:41:13.014Z,85.73
2023-01-19T00:43:40.535Z,86.07
2023-01-19T00:46:08.350Z,86.07
2023-01-19T00:48:36.166Z,85.73
2023-01-19T00:51:03.965Z,85.87
2023-01-19T00:53:32.675Z,85.76
2023-01-19T00:56:00.288Z,86.33
2023-01-19T00:58:27.854Z,85.96
2023-01-19T01:00:57.924Z,86.29
2023-01-19T01:03:28.153Z,86.16
2023-01-19T01:05:56.055Z,86.24
2023-01-19T01:08:23.815Z,86.40
2023-01-19T01:10:51.919Z,86.46
2023-01-19T01:13:21.267Z,86.38
2023-01-19T01:15:51.720Z,86.58
2023-01-19T01:18:20.471Z,86.49
2023-01-19T01:20:48.387Z,86.49
2023-01-19T01:27:29.391Z,86.68
2023-01-19T01:29:56.971Z,87.00
2023-01-19T01:32:24.584Z,86.70
2023-01-19T01:34:52.174Z,86.66
2023-01-19T01:37:19.744Z,86.92
2023-01-19T01:39:49.452Z,86.81
2023-01-19T01:42:19.985Z,87.24
2023-01-19T01:44:56.030Z,87.08
2023-01-19T01:47:47.340Z,87.02
2023-01-19T01:50:21.443Z,87.21
2023-01-19T01:53:13.502Z,87.04
2023-01-19T01:55:49.236Z,86.91
2023-01-19T01:58:17.229Z,87.41
2023-01-19T02:01:03.423Z,87.47
2023-01-19T02:03:32.733Z,87.42
2023-01-19T02:06:04.884Z,87.54
2023-01-19T02:09:03.911Z,87.50
2023-01-19T02:11:51.117Z,87.51
2023-01-19T02:14:21.500Z,87.63
2023-01-19T02:16:49.357Z,87.55
2023-01-19T02:19:24.552Z,87.95
2023-01-19T02:22:04.187Z,87.94
2023-01-19T02:24:35.825Z,87.84
2023-01-19T02:27:04.812Z,87.88
2023-01-19T02:29:33.992Z,88.13
2023-01-19T02:32:03.411Z,88.19
2023-01-19T02:34:32.321Z,87.89
2023-01-19T02:37:06.769Z,88.00
2023-01-19T02:39:43.341Z,88.11
2023-01-19T02:42:18.992Z,88.24
2023-01-19T02:44:50.364Z,88.09
2023-01-19T02:47:18.555Z,88.14
2023-01-19T02:54:04.872Z,88.04
2023-01-19T02:56:55.588Z,88.39
2023-01-19T02:59:41.573Z,88.36
2023-01-19T03:02:47.919Z,88.63
2023-01-19T03:05:26.877Z,88.70
2023-01-19T03:08:30.578Z,88.48
2023-01-19T03:11:11.749Z,88.63
2023-01-19T03:14:01.635Z,88.79
2023-01-19T03:16:50.547Z,88.59
2023-01-19T03:19:22.330Z,88.82
2023-01-19T03:21:58.543Z,88.52
2023-01-19T03:24:31.580Z,88.68
2023-01-19T03:27:05.397Z,88.91
2023-01-19T03:29:35.177Z,88.85
2023-01-19T03:32:07.450Z,88.74
2023-01-19T03:34:38.484Z,88.90
2023-01-19T03:37:10.367Z,88.78
2023-01-19T03:39:38.059Z,88.76
2023-01-19T03:42:10.956Z,89.15
2023-01-19T03:45:37.813Z,88.90
2023-01-19T03:48:06.388Z,89.08
2023-01-19T03:50:34.003Z,88.79
2023-01-19T03:53:06.205Z,89.15
2023-01-19T03:55:35.136Z,89.20
2023-01-19T03:58:02.763Z,89.00
2023-01-19T04:00:30.570Z,89.01
2023-01-19T04:02:58.622Z,89.15
2023-01-19T04:05:26.530Z,89.19
2023-01-19T04:07:54.178Z,89.23
2023-01-19T04:10:22.425Z,89.63
2023-01-19T04:12:50.021Z,89.51
2023-01-19T04:15:18.692Z,89.24
2023-01-19T04:17:46.232Z,89.42
2023-01-19T04:20:13.908Z,89.66
2023-01-19T04:27:15.101Z,89.06
2023-01-19T04:29:42.739Z,89.27
2023-01-19T04:32:10.294Z,89.28
2023-01-19T04:34:38.566Z,89.27
2023-01-19T04:37:06.666Z,89.34
2023-01-19T04:39:35.100Z,89.22
2023-01-19T04:42:02.687Z,89.08
2023-01-19T04:44:30.272Z,88.98
2023-01-19T04:46:57.836Z,89.25
2023-01-19T04:49:25.488Z,89.55
2023-01-19T04:51:54.193Z,89.54
2023-01-19T04:54:22.270Z,89.50
2023-01-19T04:56:50.001Z,89.41
2023-01-19T04:59:17.642Z,89.48
2023-01-19T05:01:45.289Z,89.57
2023-01-19T05:04:13.032Z,89.34
2023-01-19T05:06:40.640Z,89.43
2023-01-19T05:09:09.229Z,89.54
2023-01-19T05:11:36.831Z,89.61
2023-01-19T05:14:04.843Z,89.51
2023-01-19T05:16:33.176Z,89.86
2023-01-19T05:19:00.946Z,90.16
2023-01-19T05:21:28.560Z,90.39
2023-01-19T05:23:56.109Z,90.22
2023-01-19T05:26:23.960Z,90.54
2023-01-19T05:28:51.581Z,90.59
2023-01-19T05:31:19.734Z,90.92
2023-01-19T05:33:48.351Z,90.77
2023-01-19T05:36:15.984Z,90.72
2023-01-19T05:38:43.616Z,90.59
2023-01-19T05:41:11.661Z,90.68
2023-01-19T05:43:39.241Z,90.70
2023-01-19T05:46:07.018Z,90.21
2023-01-19T05:48:34.656Z,90.29
2023-01-19T05:51:02.195Z,90.43
2023-01-19T05:53:29.819Z,90.43
2023-01-19T05:56:05.678Z,90.37
2023-01-19T05:58:34.551Z,90.38
2023-01-19T06:01:05.716Z,90.42
2023-01-19T06:03:34.791Z,90.32
2023-01-19T06:06:03.453Z,90.21
2023-01-19T06:08:31.171Z,90.44
2023-01-19T06:10:58.777Z,90.30
2023-01-19T06:13:26.483Z,90.48
2023-01-19T06:16:02.117Z,90.61
2023-01-19T06:18:30.196Z,90.63
2023-01-19T06:21:00.449Z,90.74
2023-01-19T06:23:30.810Z,90.69
2023-01-19T06:25:58.477Z,90.69
2023-01-19T06:28:26.079Z,90.68
2023-01-19T06:30:55.344Z,90.66
2023-01-19T06:33:24.160Z,90.84
2023-01-19T06:35:52.404Z,90.54
2023-01-19T06:38:20.427Z,90.41
2023-01-19T06:40:58.362Z,90.33
2023-01-19T06:43:27.085Z,90.45
2023-01-19T06:45:56.227Z,90.64
2023-01-19T06:48:24.340Z,90.47
2023-01-19T06:50:52.044Z,90.69
2023-01-19T06:53:20.876Z,90.84
2023-01-19T06:55:49.985Z,90.73
2023-01-19T06:58:17.989Z,90.76
2023-01-19T07:00:45.551Z,90.56
2023-01-19T07:03:20.734Z,90.49
2023-01-19T07:05:52.057Z,91.01
2023-01-19T07:08:19.875Z,90.79
2023-01-19T07:11:24.689Z,90.68
2023-01-19T07:13:37.003Z,90.51
2023-01-19T07:16:10.335Z,90.63
2023-01-19T07:18:39.659Z,90.70
2023-01-19T07:21:07.778Z,90.49
2023-01-19T07:23:35.680Z,90.98
2023-01-19T07:26:03.307Z,90.79
2023-01-19T07:28:31.792Z,90.98
2023-01-19T07:30:59.729Z,91.07
2023-01-19T07:33:27.488Z,91.12
2023-01-19T07:35:55.116Z,91.26
2023-01-19T07:38:23.038Z,90.90
2023-01-19T07:40:50.731Z,90.99
2023-01-19T07:43:18.376Z,90.91
2023-01-19T07:45:46.084Z,90.83
2023-01-19T07:48:14.209Z,90.99
2023-01-19T07:50:41.984Z,90.93
2023-01-19T07:53:09.981Z,91.35
2023-01-19T07:55:37.874Z,90.90
2023-01-19T07:58:07.442Z,90.84
2023-01-19T08:00:36.572Z,90.51
2023-01-19T08:03:05.462Z,90.97
2023-01-19T08:05:33.930Z,90.76
2023-01-19T08:08:01.579Z,90.95
2023-01-19T08:10:29.375Z,91.03
2023-01-19T08:12:58.571Z,90.93
2023-01-19T08:15:26.759Z,90.99
2023-01-19T08:17:58.984Z,90.88
2023-01-19T08:20:28.156Z,90.94
2023-01-19T08:23:00.452Z,90.89
2023-01-19T08:25:40.994Z,91.05
2023-01-19T08:28:09.579Z,91.07
2023-01-19T11:24:40.079Z,83.65
2023-01-19T11:27:08.452Z,81.63
2023-01-19T11:30:02.255Z,79.73
2023-01-19T11:32:30.254Z,78.69
2023-01-19T11:34:58.008Z,78.07
2023-01-19T11:37:29.219Z,77.75
2023-01-19T11:39:59.225Z,76.98
2023-01-19T11:42:30.577Z,75.34
2023-01-19T11:44:58.162Z,74.03
2023-01-19T11:47:28.422Z,72.60
2023-01-19T11:50:04.298Z,71.61
2023-01-19T11:53:02.158Z,70.96
2023-01-19T11:55:48.658Z,71.02
2023-01-19T11:58:18.393Z,71.45
2023-01-19T12:01:00.789Z,71.34
2023-01-19T12:03:34.689Z,72.03
2023-01-19T12:06:07.744Z,72.62
2023-01-19T12:08:41.891Z,73.06
2023-01-19T12:11:12.758Z,72.87
2023-01-19T12:13:44.063Z,73.48
2023-01-19T12:16:20.978Z,73.46
2023-01-19T12:18:54.605Z,73.59
2023-01-19T12:21:22.898Z,73.38
2023-01-19T12:24:08.880Z,72.84
2023-01-19T12:26:58.751Z,73.56
2023-01-19T12:29:31.492Z,73.80
2023-01-19T12:32:14.141Z,73.44
2023-01-19T12:34:50.024Z,74.33
2023-01-19T12:37:36.012Z,73.54
2023-01-19T12:40:19.179Z,74.06
2023-01-19T12:42:53.413Z,73.42
2023-01-19T12:45:29.408Z,73.42
2023-01-19T12:47:57.071Z,73.60
2023-01-19T12:50:26.004Z,73.54
2023-01-19T12:52:58.549Z,73.55
2023-01-19T12:55:28.345Z,73.53
2023-01-19T13:02:28.006Z,73.46
2023-01-19T13:05:10.783Z,73.33
2023-01-19T13:08:05.049Z,73.32
2023-01-19T13:14:37.047Z,73.76
2023-01-19T13:17:15.662Z,73.31
2023-01-19T13:20:20.817Z,72.71
2023-01-19T13:24:02.812Z,72.42
2023-01-19T13:26:40.056Z,73.00
2023-01-19T13:29:49.175Z,72.56
2023-01-19T13:32:20.007Z,72.77
2023-01-19T13:34:57.677Z,72.61
2023-01-19T13:41:34.888Z,71.25
2023-01-19T13:44:25.102Z,69.93
2023-01-19T13:51:19.128Z,69.57
2023-01-19T13:54:03.232Z,69.41
2023-01-19T14:00:31.170Z,70.24
2023-01-19T14:06:40.197Z,70.53
2023-01-19T14:09:17.553Z,70.31
2023-01-19T14:12:41.614Z,69.77
2023-01-19T14:15:14.457Z,70.77
2023-01-19T14:17:42.311Z,70.20
2023-01-19T14:20:29.752Z,70.12
2023-01-19T14:22:57.423Z,70.96
2023-01-19T14:25:39.345Z,70.74
2023-01-19T14:28:40.962Z,71.25
2023-01-19T14:31:25.029Z,71.42
2023-01-19T14:34:10.402Z,71.86
2023-01-19T14:36:42.047Z,72.42
2023-01-19T14:39:22.402Z,73.05
2023-01-19T14:41:52.907Z,73.28
2023-01-19T14:44:35.049Z,73.52
2023-01-19T14:47:04.133Z,74.28
2023-01-19T14:49:46.457Z,74.21
2023-01-19T14:52:25.297Z,75.01
2023-01-19T14:54:54.066Z,75.17
2023-01-19T14:57:21.715Z,75.39
2023-01-19T14:59:50.367Z,75.90
2023-01-19T15:02:21.072Z,76.46
2023-01-19T15:04:48.782Z,76.56
2023-01-19T15:07:20.213Z,76.51
2023-01-19T15:09:48.394Z,76.74
2023-01-19T15:12:18.633Z,77.73
2023-01-19T15:14:46.642Z,77.21
2023-01-19T15:17:25.395Z,78.53
2023-01-19T15:19:54.711Z,78.22
2023-01-19T15:22:26.743Z,78.74
2023-01-19T15:24:57.688Z,78.89
2023-01-19T15:27:26.938Z,79.47
2023-01-19T15:29:54.612Z,78.89
2023-01-19T15:32:22.190Z,79.63
2023-01-19T15:34:50.455Z,80.10
2023-01-19T15:37:18.102Z,80.39
2023-01-19T15:39:45.671Z,80.24
2023-01-19T15:42:14.563Z,80.49
2023-01-19T15:44:42.191Z,80.34
2023-01-19T15:47:10.286Z,80.98
2023-01-19T15:49:38.228Z,81.13
2023-01-19T15:52:05.813Z,80.83
2023-01-19T15:54:33.453Z,80.76
2023-01-19T15:57:01.030Z,81.16
2023-01-19T15:59:28.652Z,81.50
2023-01-19T16:01:56.404Z,81.96
2023-01-19T16:04:24.091Z,81.86
2023-01-19T16:06:51.702Z,81.71
2023-01-19T16:09:20.198Z,82.04
2023-01-19T16:11:47.875Z,82.28
2023-01-19T16:14:17.392Z,81.77
2023-01-19T16:16:46.252Z,82.30
2023-01-19T16:19:15.920Z,82.02
2023-01-19T16:21:44.108Z,82.70
2023-01-19T16:24:11.775Z,82.65
2023-01-19T16:26:39.447Z,83.23
2023-01-19T16:29:09.957Z,83.26
2023-01-19T16:31:39.527Z,82.93
2023-01-19T16:34:08.178Z,83.40
2023-01-19T16:36:37.484Z,83.55
2023-01-19T16:39:08.170Z,83.12
2023-01-19T16:41:36.772Z,83.47
2023-01-19T16:44:05.172Z,83.94
2023-01-19T16:46:35.441Z,84.01
2023-01-19T16:49:06.083Z,83.91
2023-01-19T16:51:33.920Z,83.78
2023-01-19T16:54:01.496Z,83.57
2023-01-19T16:56:29.101Z,83.75
2023-01-19T16:58:58.354Z,84.28
2023-01-19T17:01:28.489Z,84.23
2023-01-19T17:03:56.500Z,84.27
2023-01-19T17:06:25.015Z,84.32
2023-01-19T17:08:53.239Z,84.34
2023-01-19T17:11:23.921Z,84.23
2023-01-19T17:13:56.969Z,84.53
2023-01-19T17:16:25.435Z,84.49
2023-01-19T17:18:53.683Z,85.04
2023-01-19T17:21:21.380Z,84.58
2023-01-19T17:23:51.888Z,84.76
2023-01-19T17:26:20.885Z,84.65
2023-01-19T17:28:48.557Z,84.85
2023-01-19T17:31:18.971Z,85.34
2023-01-19T17:33:48.847Z,85.40
2023-01-19T17:36:22.633Z,85.60
2023-01-19T17:38:51.075Z,85.35
2023-01-19T17:41:25.532Z,85.97
2023-01-19T17:43:53.754Z,85.99
2023-01-19T17:46:23.792Z,86.03
2023-01-19T17:48:56.301Z,86.12
2023-01-19T17:51:25.018Z,86.43
2023-01-19T17:53:53.687Z,86.17
2023-01-19T17:56:27.523Z,86.59
2023-01-19T17:58:56.411Z,86.75
2023-01-19T18:01:26.298Z,86.48
2023-01-19T18:03:54.557Z,86.59
2023-01-19T18:06:22.636Z,86.57
2023-01-19T18:08:50.590Z,86.69
2023-01-19T18:11:20.392Z,86.70
2023-01-19T18:13:50.006Z,86.64
2023-01-19T18:16:22.114Z,86.75
2023-01-19T18:18:50.734Z,87.02
2023-01-19T18:21:18.461Z,86.78
2023-01-19T18:23:46.247Z,87.14
2023-01-19T18:26:16.794Z,87.01
2023-01-19T18:28:44.529Z,87.62
2023-01-19T18:31:15.474Z,87.07
2023-01-19T18:33:43.600Z,87.17
2023-01-19T18:36:11.924Z,87.39
2023-01-19T18:38:40.447Z,87.33
2023-01-19T18:41:11.493Z,87.43
2023-01-19T18:43:39.734Z,87.52
2023-01-19T18:46:07.496Z,87.47
2023-01-19T18:48:36.642Z,87.42
2023-01-19T18:51:12.482Z,87.39
2023-01-19T18:53:40.595Z,87.79
2023-01-19T18:56:11.187Z,87.60
2023-01-19T18:58:39.941Z,88.08
2023-01-19T19:01:32.217Z,87.71
2023-01-19T19:04:00.490Z,87.85
2023-01-19T19:06:28.359Z,87.72
2023-01-19T19:08:59.273Z,88.00
2023-01-19T19:11:27.798Z,88.34
2023-01-19T19:13:59.256Z,87.99
2023-01-19T19:16:27.857Z,88.05
2023-01-19T19:18:55.571Z,88.13
2023-01-19T19:21:25.554Z,88.02
2023-01-19T19:23:55.635Z,88.15
2023-01-19T19:26:25.640Z,88.62
2023-01-19T19:28:53.500Z,88.15
2023-01-19T19:31:23.049Z,88.27
2023-01-19T19:33:51.321Z,88.13
2023-01-19T19:36:20.996Z,88.01
2023-01-19T19:38:49.977Z,88.23
2023-01-19T19:41:20.630Z,88.38
2023-01-19T19:43:48.603Z,88.37
2023-01-19T19:46:19.959Z,88.46
2023-01-19T19:48:48.843Z,88.50
2023-01-19T19:51:28.390Z,88.53
2023-01-19T19:54:01.549Z,88.67
2023-01-19T19:56:31.128Z,88.40
2023-01-19T19:58:59.664Z,88.35
2023-01-19T20:01:33.229Z,88.83
2023-01-19T20:04:10.772Z,89.00
2023-01-19T20:06:44.838Z,88.96
2023-01-19T20:09:14.246Z,88.86
2023-01-19T20:11:43.730Z,89.28
2023-01-19T20:14:12.863Z,89.08
2023-01-19T20:16:40.745Z,89.30
2023-01-19T20:19:08.647Z,89.32
2023-01-19T20:21:38.058Z,89.46
2023-01-19T20:24:09.790Z,89.39
2023-01-19T20:26:40.597Z,89.17
2023-01-19T20:29:10.383Z,88.89
2023-01-19T20:31:50.900Z,89.03
2023-01-19T20:37:23.073Z,88.95
2023-01-19T20:39:50.767Z,88.84
2023-01-19T20:42:18.514Z,88.76
2023-01-19T20:44:46.263Z,88.75
2023-01-19T20:47:13.968Z,88.67
2023-01-19T20:49:42.094Z,88.57
2023-01-19T20:52:10.325Z,88.50
2023-01-19T20:54:39.799Z,88.61
2023-01-19T20:57:07.494Z,88.91
2023-01-19T20:59:37.093Z,88.69
2023-01-19T21:02:07.894Z,88.75
2023-01-19T21:04:35.682Z,89.08
2023-01-19T21:07:03.805Z,88.57
2023-01-19T21:09:31.588Z,88.96
2023-01-19T21:11:59.312Z,88.94
2023-01-19T21:14:27.458Z,88.82
2023-01-19T21:16:58.417Z,88.86
2023-01-19T21:19:26.258Z,89.26
2023-01-19T21:21:55.320Z,89.01
2023-01-19T21:24:22.963Z,89.44
2023-01-19T21:27:01.991Z,89.44
2023-01-19T21:29:29.841Z,89.27
2023-01-19T21:31:57.523Z,89.43
2023-01-19T21:34:25.365Z,89.64
2023-01-19T21:36:53.015Z,89.53
2023-01-19T21:39:20.768Z,89.46
2023-01-19T21:41:48.339Z,89.41
2023-01-19T21:44:16.100Z,89.66
2023-01-19T21:46:43.765Z,89.47
2023-01-19T21:49:17.410Z,89.87
2023-01-19T21:51:47.880Z,89.58
2023-01-19T21:54:15.668Z,89.62
2023-01-19T21:56:43.739Z,89.47
2023-01-19T21:59:14.754Z,89.75
2023-01-19T22:01:44.945Z,89.71
2023-01-19T22:04:12.659Z,89.55
2023-01-19T22:06:40.801Z,89.57
2023-01-19T22:09:08.751Z,89.69
2023-01-19T22:11:36.371Z,89.67
2023-01-19T22:14:04.344Z,90.05
2023-01-19T22:16:32.157Z,89.51
2023-01-19T22:19:04.372Z,89.78
2023-01-19T22:21:35.966Z,89.73
2023-01-19T22:24:05.109Z,89.69
2023-01-19T22:26:34.383Z,89.63
2023-01-19T22:29:03.421Z,89.96
2023-01-19T22:31:31.311Z,89.82
2023-01-19T22:33:59.275Z,89.51
2023-01-19T22:36:34.155Z,89.59
2023-01-19T22:39:26.634Z,89.26
2023-01-19T22:41:54.539Z,89.59
2023-01-19T22:44:22.435Z,89.73
2023-01-19T22:46:51.034Z,89.83
2023-01-19T22:50:11.568Z,89.53
2023-01-19T22:52:39.234Z,89.92
2023-01-19T22:55:06.989Z,89.70
2023-01-19T22:57:36.780Z,89.94
2023-01-19T23:00:08.963Z,90.01
2023-01-19T23:02:37.378Z,89.79
2023-01-19T23:05:05.372Z,89.69
2023-01-19T23:07:33.015Z,89.69
2023-01-19T23:10:00.670Z,90.16
2023-01-19T23:12:28.228Z,90.05
2023-01-19T23:14:55.797Z,89.74
2023-01-19T23:17:23.787Z,90.05
2023-01-19T23:19:52.287Z,90.42
2023-01-19T23:22:20.559Z,90.33
2023-01-19T23:24:48.159Z,90.59
2023-01-19T23:27:15.773Z,90.37
2023-01-19T23:29:43.297Z,90.06
2023-01-19T23:32:10.929Z,90.18
2023-01-19T23:34:38.603Z,90.21
2023-01-19T23:37:06.224Z,89.77
2023-01-19T23:39:33.847Z,90.11
2023-01-19T23:42:05.119Z,89.82
2023-01-19T23:44:32.825Z,90.06
2023-01-19T23:47:00.444Z,89.82
2023-01-19T23:49:28.155Z,90.24
2023-01-19T23:51:55.721Z,90.01
2023-01-19T23:54:23.374Z,90.00
2023-01-19T23:56:54.732Z,90.38
2023-01-19T23:59:22.306Z,89.84
